Time;durP1;ratioP1;P1;durP2;ratioP2;P2;SDS_P1;SDS_P2;PMS_P1;PMS_P2;Temp;Humidity;BMP_temperature;BMP_pressure;BME280_temperature;BME280_humidity;BME280_pressure;Samples;Min_cycle;Max_cycle;Signal;HPM_P1;HPM_P2
2022/07/10 00:00:37;;;;;;;1.37;0.80;;;;;;;19.16;58.75;100404.94;5588408;31;34206;-68
2022/07/10 00:03:40;;;;;;;1.40;0.88;;;;;;;19.11;59.40;100402.09;5587494;31;33456;-66
2022/07/10 00:06:46;;;;;;;0.88;0.60;;;;;;;19.05;59.94;100406.50;5587894;31;33881;-67
2022/07/10 00:09:49;;;;;;;1.98;0.68;;;;;;;18.87;61.08;100400.28;5587967;31;34304;-68
2022/07/10 00:12:52;;;;;;;0.90;0.70;;;;;;;18.89;61.65;100393.63;5587370;31;34647;-66
2022/07/10 00:15:55;;;;;;;1.98;0.60;;;;;;;18.76;62.72;100401.81;5590811;31;34031;-66
2022/07/10 00:18:57;;;;;;;1.08;0.60;;;;;;;18.71;63.58;100388.22;5576975;31;32490;-68
2022/07/10 00:22:00;;;;;;;0.93;0.60;;;;;;;18.70;64.11;100391.12;5590817;31;34031;-67
2022/07/10 00:25:04;;;;;;;1.73;0.65;;;;;;;18.44;65.64;100382.22;5576767;31;32465;-67
2022/07/10 00:28:07;;;;;;;2.53;0.52;;;;;;;18.45;66.13;100394.59;5590604;31;34352;-67
2022/07/10 00:31:10;;;;;;;0.98;0.65;;;;;;;18.42;66.29;100386.16;5590903;31;34030;-68
2022/07/10 00:34:13;;;;;;;0.90;0.60;;;;;;;18.33;67.06;100382.09;5590501;31;34602;-68
2022/07/10 00:37:16;;;;;;;1.30;0.70;;;;;;;18.24;67.62;100395.81;5590641;31;34023;-67
2022/07/10 00:40:19;;;;;;;1.48;0.62;;;;;;;18.20;68.03;100388.41;5590429;31;34093;-67
2022/07/10 00:43:22;;;;;;;1.27;0.60;;;;;;;18.34;67.67;100387.25;5590447;31;34196;-68
2022/07/10 00:46:27;;;;;;;1.45;0.60;;;;;;;18.31;68.10;100401.09;5589892;31;32341;-67
2022/07/10 00:49:29;;;;;;;1.52;0.70;;;;;;;18.17;68.89;100391.50;5590385;31;34408;-67
2022/07/10 00:52:38;;;;;;;1.40;0.60;;;;;;;18.14;69.27;100383.88;5576749;31;34829;-66
2022/07/10 00:55:41;;;;;;;1.77;0.80;;;;;;;18.15;69.50;100380.97;5590504;31;33959;-67
2022/07/10 00:58:45;;;;;;;1.30;0.70;;;;;;;18.04;70.10;100376.31;5589586;31;34563;-67
2022/07/10 01:01:49;;;;;;;0.60;0.60;;;;;;;18.04;70.29;100376.31;5590671;31;34515;-68
2022/07/10 01:04:52;;;;;;;1.27;0.68;;;;;;;18.00;70.63;100376.97;5590590;31;34351;-66
2022/07/10 01:07:55;;;;;;;0.80;0.60;;;;;;;17.99;70.92;100367.25;5589818;31;33955;-67
2022/07/10 01:10:58;;;;;;;2.45;0.90;;;;;;;18.01;70.99;100368.66;5590613;31;34325;-67
2022/07/10 01:14:01;;;;;;;2.00;0.77;;;;;;;18.03;70.87;100371.16;5590232;31;33987;-67
2022/07/10 01:17:05;;;;;;;1.17;0.70;;;;;;;18.04;70.81;100367.44;5590153;31;34406;-67
2022/07/10 01:20:09;;;;;;;1.10;0.70;;;;;;;17.86;71.71;100356.59;5589282;31;34935;-67
2022/07/10 01:23:12;;;;;;;2.87;0.60;;;;;;;17.86;72.12;100370.03;5590138;31;33433;-66
2022/07/10 01:26:14;;;;;;;1.27;0.80;;;;;;;17.86;71.92;100364.66;5589108;31;34538;-68
2022/07/10 01:29:17;;;;;;;0.73;0.70;;;;;;;17.83;72.18;100357.84;5589688;31;33971;-68
2022/07/10 01:32:19;;;;;;;1.42;0.68;;;;;;;17.80;72.22;100363.66;5589947;31;34834;-68
2022/07/10 01:35:22;;;;;;;0.80;0.70;;;;;;;17.81;72.25;100365.31;5590049;31;33849;-65
2022/07/10 01:38:25;;;;;;;0.70;0.65;;;;;;;17.70;72.86;100350.72;5589918;31;34031;-67
2022/07/10 01:41:28;;;;;;;1.25;0.73;;;;;;;17.79;72.86;100349.41;5589863;31;34703;-67
2022/07/10 01:44:30;;;;;;;1.15;0.60;;;;;;;17.55;74.38;100341.25;5589995;31;33907;-68
2022/07/10 01:47:33;;;;;;;0.90;0.60;;;;;;;17.43;75.00;100334.94;5589106;31;34643;-68
2022/07/10 01:50:36;;;;;;;0.73;0.60;;;;;;;17.44;75.30;100333.88;5589710;31;34238;-67
2022/07/10 01:53:39;;;;;;;1.00;0.70;;;;;;;17.28;76.07;100336.00;5589096;31;34664;-66
2022/07/10 01:56:42;;;;;;;3.33;0.95;;;;;;;17.36;76.08;100325.06;5589914;31;35139;-67
2022/07/10 01:59:45;;;;;;;1.42;0.73;;;;;;;17.23;76.84;100325.09;5589056;31;34624;-67
2022/07/10 02:04:40;;;;;;;1.10;0.88;;;;;;;17.09;77.53;100322.69;5589773;31;34006;-67
2022/07/10 02:06:10;;;;;;;1.00;0.70;;;;;;;17.05;77.99;100326.81;5589650;31;33983;-67
2022/07/10 02:09:14;;;;;;;2.12;0.90;;;;;;;17.10;78.23;100327.00;5589637;31;33882;-67
2022/07/10 02:12:17;;;;;;;1.05;0.95;;;;;;;17.14;78.15;100325.53;5588909;31;33994;-67
2022/07/10 02:15:20;;;;;;;1.40;0.90;;;;;;;17.03;78.98;100319.00;5589788;31;34082;-66
2022/07/10 02:18:23;;;;;;;4.80;1.35;;;;;;;16.93;79.11;100335.50;5589910;31;34151;-66
2022/07/10 02:21:25;;;;;;;1.75;0.80;;;;;;;16.90;80.82;100324.38;5589457;31;34810;-66
2022/07/10 02:24:28;;;;;;;1.23;1.00;;;;;;;16.80;80.62;100321.28;5589636;31;33915;-67
2022/07/10 02:27:31;;;;;;;1.85;0.90;;;;;;;16.82;80.71;100322.75;5589399;31;33977;-67
2022/07/10 02:30:34;;;;;;;1.33;0.95;;;;;;;16.81;81.19;100321.09;5589445;31;33958;-67
2022/07/10 02:33:36;;;;;;;1.30;0.95;;;;;;;16.81;81.08;100317.59;5589474;31;33894;-67
2022/07/10 02:36:39;;;;;;;3.30;0.90;;;;;;;16.76;81.61;100320.06;5589090;31;33900;-67
2022/07/10 02:39:42;;;;;;;1.23;1.00;;;;;;;16.67;82.31;100316.81;5589755;31;34038;-67
2022/07/10 02:42:44;;;;;;;1.45;1.12;;;;;;;16.58;83.04;100310.03;5589372;31;34527;-66
2022/07/10 02:45:47;;;;;;;1.83;1.15;;;;;;;16.61;83.44;100314.13;5589410;31;34164;-67
2022/07/10 02:48:50;;;;;;;1.15;1.00;;;;;;;16.45;84.28;100316.19;5589247;31;34014;-67
2022/07/10 02:51:53;;;;;;;1.40;1.30;;;;;;;16.41;84.71;100320.28;5589090;31;34579;-66
2022/07/10 02:54:56;;;;;;;1.35;0.82;;;;;;;16.39;84.97;100321.53;5588490;31;34404;-68
2022/07/10 02:58:03;;;;;;;1.25;1.10;;;;;;;16.31;85.59;100319.09;5589447;31;34695;-67
2022/07/10 03:01:06;;;;;;;2.67;1.30;;;;;;;16.27;85.85;100318.66;5588401;31;33999;-67
2022/07/10 03:04:09;;;;;;;1.58;1.12;;;;;;;16.37;86.35;100326.28;5589437;31;34042;-67
2022/07/10 03:07:11;;;;;;;1.20;1.10;;;;;;;16.25;86.19;100311.87;5588989;31;34057;-66
2022/07/10 03:10:14;;;;;;;2.05;1.35;;;;;;;16.17;86.80;100320.12;5588901;31;35140;-67
2022/07/10 03:13:17;;;;;;;2.35;1.40;;;;;;;16.12;87.27;100320.69;5588230;31;34310;-66
2022/07/10 03:16:19;;;;;;;1.60;1.20;;;;;;;16.09;87.71;100329.16;5588995;31;34327;-66
2022/07/10 03:19:22;;;;;;;1.50;1.17;;;;;;;16.28;86.73;100328.34;5588844;31;33913;-67
2022/07/10 03:22:25;;;;;;;1.73;1.20;;;;;;;16.20;87.06;100333.91;5588761;31;35493;-65
2022/07/10 03:25:28;;;;;;;2.50;1.30;;;;;;;16.10;87.67;100330.81;5588766;31;34694;-68
2022/07/10 03:28:31;;;;;;;1.90;1.30;;;;;;;16.14;87.73;100336.56;5588398;31;33873;-68
2022/07/10 03:31:33;;;;;;;1.55;1.27;;;;;;;16.11;87.80;100321.75;5588664;31;33953;-67
2022/07/10 03:34:36;;;;;;;2.55;1.40;;;;;;;16.11;88.09;100323.59;5588633;31;33844;-66
2022/07/10 03:37:39;;;;;;;2.42;1.50;;;;;;;16.16;88.12;100319.28;5588650;31;34577;-66
2022/07/10 03:40:42;;;;;;;2.78;1.45;;;;;;;16.10;88.48;100320.09;5588713;31;33968;-67
2022/07/10 03:43:44;;;;;;;2.25;1.37;;;;;;;16.15;88.42;100319.47;5588027;31;34725;-66
2022/07/10 03:46:47;;;;;;;1.77;1.50;;;;;;;16.23;88.08;100320.09;5588527;31;33969;-67
2022/07/10 03:49:50;;;;;;;1.60;1.30;;;;;;;16.17;88.33;100317.44;5589902;31;34041;-66
2022/07/10 03:52:52;;;;;;;1.30;1.20;;;;;;;16.24;88.20;100311.03;5590814;31;34061;-66
2022/07/10 03:55:55;;;;;;;1.90;1.23;;;;;;;16.26;88.01;100306.31;5591309;31;33895;-68
2022/07/10 03:58:57;;;;;;;9.13;1.48;;;;;;;16.35;87.69;100313.09;5590841;31;34056;-67
2022/07/10 04:02:00;;;;;;;1.58;1.30;;;;;;;16.42;87.27;100302.38;5590836;31;35167;-67
2022/07/10 04:05:10;;;;;;;4.70;1.80;;;;;;;16.40;87.21;100305.28;5590853;31;35157;-67
2022/07/10 04:08:12;;;;;;;1.50;1.30;;;;;;;16.48;86.91;100293.53;5591097;31;34205;-68
2022/07/10 04:11:15;;;;;;;4.00;1.25;;;;;;;16.57;86.31;100300.31;5590726;31;33951;-67
2022/07/10 04:14:18;;;;;;;2.22;1.55;;;;;;;16.57;86.43;100297.63;5591036;31;34290;-68
2022/07/10 04:17:20;;;;;;;1.87;1.33;;;;;;;16.56;86.23;100300.50;5589619;31;32704;-68
2022/07/10 04:20:24;;;;;;;4.87;1.27;;;;;;;16.50;86.62;100308.37;5590533;31;33929;-68
2022/07/10 04:23:27;;;;;;;1.65;1.37;;;;;;;16.47;86.68;100291.87;5590449;31;34707;-67
2022/07/10 04:26:33;;;;;;;2.28;1.30;;;;;;;16.41;86.84;100293.50;5589818;31;34043;-67
2022/07/10 04:29:36;;;;;;;1.90;1.20;;;;;;;16.59;85.85;100300.97;5590636;31;34548;-68
2022/07/10 04:32:39;;;;;;;2.75;1.40;;;;;;;16.67;85.33;100299.91;5590629;31;34009;-67
2022/07/10 04:35:42;;;;;;;1.58;1.25;;;;;;;16.72;85.17;100292.06;5590932;31;33910;-67
2022/07/10 04:38:45;;;;;;;1.42;1.23;;;;;;;16.67;85.19;100286.50;5590509;31;33944;-67
2022/07/10 04:41:48;;;;;;;1.60;1.30;;;;;;;16.69;85.03;100293.31;5590941;31;34036;-68
2022/07/10 04:44:50;;;;;;;2.10;1.42;;;;;;;16.82;84.73;100290.59;5589850;31;33509;-67
2022/07/10 04:47:53;;;;;;;1.70;1.40;;;;;;;16.73;85.51;100289.19;5589726;31;34597;-67
2022/07/10 04:50:56;;;;;;;1.52;1.40;;;;;;;16.91;84.66;100292.00;5590672;31;34082;-65
2022/07/10 04:53:59;;;;;;;3.00;1.50;;;;;;;16.63;85.79;100286.12;5590444;31;34180;-66
2022/07/10 04:57:01;;;;;;;1.83;1.55;;;;;;;16.66;85.84;100290.22;5590297;31;33949;-67
2022/07/10 05:00:05;;;;;;;2.37;1.30;;;;;;;16.63;85.84;100285.28;5576601;31;33953;-68
2022/07/10 05:03:07;;;;;;;1.60;1.50;;;;;;;16.71;85.50;100288.56;5590376;31;35213;-67
2022/07/10 05:06:10;;;;;;;1.65;1.37;;;;;;;16.87;85.09;100282.75;5590622;31;33954;-68
2022/07/10 05:09:13;;;;;;;4.47;1.55;;;;;;;16.91;84.98;100281.28;5589444;31;35202;-67
2022/07/10 05:12:16;;;;;;;1.60;1.40;;;;;;;17.03;84.18;100273.44;5590057;31;34311;-69
2022/07/10 05:15:19;;;;;;;1.73;1.25;;;;;;;17.08;83.90;100283.50;5589361;31;32844;-67
2022/07/10 05:18:21;;;;;;;2.22;1.73;;;;;;;17.08;83.64;100272.78;5590174;31;34005;-67
2022/07/10 05:21:25;;;;;;;2.30;1.33;;;;;;;17.17;83.31;100275.03;5590122;31;34722;-68
2022/07/10 05:24:28;;;;;;;2.60;1.62;;;;;;;17.33;81.92;100277.19;5589784;31;35552;-68
2022/07/10 05:27:30;;;;;;;1.92;1.40;;;;;;;17.43;81.99;100279.41;5590286;31;34620;-67
2022/07/10 05:30:33;;;;;;;2.10;1.40;;;;;;;17.53;80.93;100273.56;5589974;31;34555;-67
2022/07/10 05:33:38;;;;;;;1.65;1.35;;;;;;;17.62;80.49;100266.97;5589274;31;32474;-67
2022/07/10 05:36:42;;;;;;;1.65;1.40;;;;;;;17.66;79.85;100273.53;5590341;31;34399;-68
2022/07/10 05:39:45;;;;;;;3.40;1.50;;;;;;;17.87;78.58;100275.84;5589984;31;34670;-67
2022/07/10 05:42:48;;;;;;;2.47;1.33;;;;;;;17.79;78.97;100279.66;5590245;31;34039;-67
2022/07/10 05:45:50;;;;;;;1.92;1.40;;;;;;;17.70;79.26;100275.56;5589825;31;34555;-67
2022/07/10 05:49:01;;;;;;;2.58;1.37;;;;;;;17.83;78.55;100277.34;5589182;31;33313;-67
2022/07/10 05:52:04;;;;;;;1.87;1.35;;;;;;;17.77;78.15;100273.66;5589797;31;35173;-66
2022/07/10 05:55:07;;;;;;;4.87;1.90;;;;;;;17.90;77.68;100274.63;5589669;31;34271;-65
2022/07/10 05:58:12;;;;;;;1.90;1.62;;;;;;;17.84;77.54;100268.25;5589101;31;34566;-68
2022/07/10 06:01:14;;;;;;;1.90;1.60;;;;;;;17.99;77.60;100278.69;5589748;31;34636;-68
2022/07/10 06:04:17;;;;;;;2.17;1.48;;;;;;;17.89;77.67;100276.47;5589670;31;35181;-67
2022/07/10 06:07:20;;;;;;;1.92;1.40;;;;;;;17.94;77.31;100271.28;5589718;31;34573;-67
2022/07/10 06:10:23;;;;;;;2.22;1.55;;;;;;;17.86;77.34;100268.03;5589970;31;34643;-66
2022/07/10 06:13:25;;;;;;;3.25;1.52;;;;;;;18.02;76.24;100273.69;5588956;31;34612;-68
2022/07/10 06:16:28;;;;;;;3.40;1.75;;;;;;;17.93;76.20;100272.31;5589581;31;33904;-68
2022/07/10 06:19:31;;;;;;;2.35;1.50;;;;;;;18.04;75.91;100276.16;5588917;31;34000;-67
2022/07/10 06:22:34;;;;;;;2.22;1.50;;;;;;;18.10;75.32;100265.38;5589576;31;33906;-67
2022/07/10 06:25:36;;;;;;;2.85;1.58;;;;;;;18.31;74.69;100266.00;5589439;31;34807;-67
2022/07/10 06:28:39;;;;;;;1.65;1.20;;;;;;;18.40;73.34;100276.25;5588509;31;34738;-66
2022/07/10 06:31:43;;;;;;;3.72;1.50;;;;;;;18.46;72.44;100277.22;5588740;31;34082;-66
2022/07/10 06:34:46;;;;;;;1.85;1.40;;;;;;;18.69;71.15;100271.25;5589479;31;34588;-67
2022/07/10 06:37:49;;;;;;;2.28;1.48;;;;;;;18.77;69.79;100279.84;5588996;31;34405;-65
2022/07/10 06:40:53;;;;;;;3.35;1.45;;;;;;;18.68;70.05;100273.12;5589353;31;34705;-67
2022/07/10 06:43:55;;;;;;;2.75;1.50;;;;;;;18.85;69.20;100271.47;5589280;31;34052;-66
2022/07/10 06:50:21;;;;;;;2.20;1.50;;;;;;;19.42;66.74;100278.19;5589168;31;35224;-66
2022/07/10 06:53:26;;;;;;;2.08;1.48;;;;;;;19.38;65.67;100268.13;5589208;31;33951;-67
2022/07/10 06:56:29;;;;;;;2.33;1.40;;;;;;;19.60;65.49;100273.84;5589065;31;35374;-67
2022/07/10 06:59:32;;;;;;;2.47;1.30;;;;;;;19.90;64.10;100266.53;5589081;31;34407;-68
2022/07/10 07:02:35;;;;;;;1.55;1.17;;;;;;;20.11;61.47;100263.31;5589022;31;34441;-67
2022/07/10 07:05:38;;;;;;;1.83;1.10;;;;;;;20.22;60.84;100261.69;5575466;31;32585;-66
2022/07/10 07:08:41;;;;;;;1.85;1.20;;;;;;;20.42;59.33;100262.19;5588665;31;33868;-66
2022/07/10 07:11:45;;;;;;;1.50;1.10;;;;;;;20.69;58.24;100266.03;5588890;31;34142;-67
2022/07/10 07:14:48;;;;;;;1.08;0.98;;;;;;;20.46;58.32;100271.44;5588892;31;34005;-67
2022/07/10 07:17:56;;;;;;;1.42;1.00;;;;;;;20.78;57.32;100263.78;5588712;31;34707;-68
2022/07/10 07:24:22;;;;;;;1.98;1.00;;;;;;;21.19;55.96;100257.37;5589772;31;33922;-68
2022/07/10 07:27:24;;;;;;;3.05;1.10;;;;;;;20.99;57.18;100262.34;5590822;31;34182;-68
2022/07/10 07:30:28;;;;;;;3.72;1.10;;;;;;;21.08;56.17;100267.13;5590855;31;33999;-68
2022/07/10 07:33:32;;;;;;;1.20;1.00;;;;;;;20.78;56.05;100267.31;5590333;31;33133;-67
2022/07/10 07:36:36;;;;;;;1.15;0.95;;;;;;;21.04;55.59;100271.34;5591050;31;34026;-68
2022/07/10 07:39:38;;;;;;;1.95;1.02;;;;;;;21.53;54.51;100275.31;5591057;31;33578;-67
2022/07/10 07:42:42;;;;;;;3.47;0.90;;;;;;;22.38;52.38;100274.31;5590873;31;33972;-69
2022/07/10 07:45:45;;;;;;;1.42;1.02;;;;;;;23.15;48.30;100275.13;5590974;31;34745;-67
2022/07/10 07:48:48;;;;;;;2.20;0.98;;;;;;;24.01;47.18;100269.81;5590814;31;34064;-68
2022/07/10 07:51:50;;;;;;;1.37;0.80;;;;;;;25.06;45.28;100266.19;5591038;31;33885;-68
2022/07/10 07:54:53;;;;;;;2.87;1.00;;;;;;;24.14;45.06;100261.25;5590684;31;33914;-68
2022/07/10 07:57:57;;;;;;;1.80;1.00;;;;;;;24.86;44.03;100260.63;5590744;31;34924;-68
2022/07/10 08:00:59;;;;;;;1.67;1.00;;;;;;;24.99;42.88;100252.84;5590605;31;34029;-68
2022/07/10 08:04:02;;;;;;;3.35;0.88;;;;;;;24.27;43.88;100255.41;5590526;31;34156;-67
2022/07/10 08:07:11;;;;;;;2.95;1.00;;;;;;;24.43;42.75;100256.31;5590711;31;34086;-68
2022/07/10 08:10:19;;;;;;;1.65;0.88;;;;;;;23.70;44.94;100252.47;5590317;31;34435;-68
2022/07/10 08:13:22;;;;;;;2.05;0.98;;;;;;;23.74;44.03;100257.13;5590989;31;34091;-67
2022/07/10 08:16:25;;;;;;;1.75;0.85;;;;;;;23.84;44.99;100250.97;5590765;31;34076;-68
2022/07/10 08:19:27;;;;;;;4.03;0.90;;;;;;;24.99;42.33;100260.16;5590430;31;34019;-67
2022/07/10 08:22:31;;;;;;;2.15;0.73;;;;;;;26.07;40.00;100254.69;5590395;31;33956;-66
2022/07/10 08:25:35;;;;;;;2.35;0.90;;;;;;;25.25;40.06;100253.75;5590450;31;34688;-68
2022/07/10 08:28:37;;;;;;;1.83;0.82;;;;;;;24.95;40.92;100253.63;5590305;31;34146;-67
2022/07/10 08:31:40;;;;;;;1.08;0.80;;;;;;;24.22;42.51;100260.78;5590451;31;33920;-68
2022/07/10 08:34:43;;;;;;;1.37;0.82;;;;;;;25.41;39.92;100255.44;5589465;31;34641;-68
2022/07/10 08:37:49;;;;;;;2.22;0.82;;;;;;;25.85;39.55;100253.06;5590514;31;35220;-68
2022/07/10 08:40:56;;;;;;;1.12;0.82;;;;;;;25.67;39.17;100263.63;5590482;31;34042;-68
2022/07/10 08:43:59;;;;;;;1.48;0.93;;;;;;;24.36;41.24;100256.53;5589693;31;32701;-66
2022/07/10 08:47:02;;;;;;;1.55;0.82;;;;;;;25.12;40.02;100263.19;5590421;31;34347;-66
2022/07/10 08:50:20;;;;;;;1.48;1.00;;;;;;;23.14;45.37;100261.88;5589419;31;33911;-67
2022/07/10 08:53:34;;;;;;;1.58;0.85;;;;;;;22.67;46.01;100261.50;5590363;31;34011;-67
2022/07/10 08:56:37;;;;;;;1.27;1.00;;;;;;;22.47;46.23;100253.91;5590292;31;34632;-67
2022/07/10 08:59:40;;;;;;;2.00;1.55;;;;;;;23.16;44.58;100244.31;5589207;31;33512;-67
2022/07/10 09:02:42;;;;;;;2.45;0.90;;;;;;;24.96;40.50;100245.25;5590288;31;33925;-67
2022/07/10 09:05:46;;;;;;;6.60;0.90;;;;;;;25.68;36.94;100260.66;5589756;31;34159;-68
2022/07/10 09:09:07;;;;;;;1.58;0.82;;;;;;;25.81;37.24;100251.16;5590225;31;34652;-68
2022/07/10 09:12:10;;;;;;;1.50;0.80;;;;;;;26.50;37.14;100245.97;5590437;31;33928;-69
2022/07/10 09:15:18;;;;;;;3.70;0.93;;;;;;;24.80;40.33;100248.09;5589438;31;33887;-69
2022/07/10 09:18:25;;;;;;;4.15;0.90;;;;;;;23.56;43.38;100243.13;5589863;31;34175;-66
2022/07/10 09:21:32;;;;;;;2.15;0.90;;;;;;;22.65;45.44;100244.72;5589928;31;33805;-69
2022/07/10 09:24:40;;;;;;;2.10;1.02;;;;;;;22.54;44.76;100249.97;5590008;31;34551;-67
2022/07/10 09:27:58;;;;;;;2.12;0.70;;;;;;;24.73;40.69;100245.66;5576072;31;33605;-68
2022/07/10 09:31:00;;;;;;;0.73;0.55;;;;;;;25.93;36.36;100251.72;5589517;31;35453;-69
2022/07/10 09:34:03;;;;;;;1.77;0.88;;;;;;;27.33;33.75;100239.94;5589975;31;34817;-68
2022/07/10 09:37:28;;;;;;;2.78;0.70;;;;;;;27.29;35.13;100244.31;5589901;31;34072;-67
2022/07/10 09:40:31;;;;;;;1.15;0.70;;;;;;;27.30;34.74;100229.59;5589285;31;34124;-68
2022/07/10 09:44:00;;;;;;;0.95;0.60;;;;;;;27.76;34.06;100221.94;5590216;31;34064;-69
2022/07/10 09:47:03;;;;;;;;;;;;;;;28.20;32.24;100222.69;5589607;31;34819;-67
2022/07/10 09:50:25;;;;;;;1.48;0.80;;;;;;;28.12;32.49;100223.31;5589326;31;34861;-68
2022/07/10 09:53:29;;;;;;;0.93;0.68;;;;;;;26.63;35.24;100225.50;5589828;31;34671;-68
2022/07/10 09:56:51;;;;;;;1.08;0.77;;;;;;;26.23;36.21;100231.88;5588988;31;34587;-68
2022/07/10 09:59:56;;;;;;;1.05;0.65;;;;;;;26.77;35.40;100216.47;5589891;31;33955;-71
2022/07/10 10:03:00;;;;;;;1.42;0.70;;;;;;;28.03;32.96;100214.88;5588838;31;34305;-67
2022/07/10 10:06:19;;;;;;;0.98;0.60;;;;;;;27.60;33.30;100208.44;5589708;31;34553;-67
2022/07/10 10:09:24;;;;;;;1.07;0.60;;;;;;;27.42;33.35;100205.53;5589179;31;33286;-69
2022/07/10 10:12:35;;;;;;;0.70;0.50;;;;;;;27.90;33.01;100201.91;5589765;31;34214;-67
2022/07/10 10:15:38;;;;;;;2.80;0.60;;;;;;;29.25;30.82;100199.84;5589562;31;33992;-68
2022/07/10 10:22:08;;;;;;;4.00;0.60;;;;;;;29.00;30.36;100200.22;5589552;31;34068;-68
2022/07/10 10:25:17;;;;;;;0.70;0.50;;;;;;;28.89;30.65;100191.34;5588872;31;32400;-68
2022/07/10 10:28:23;;;;;;;1.75;0.60;;;;;;;29.69;28.80;100189.34;5585399;31;122290;-68
2022/07/10 10:31:28;;;;;;;0.90;0.60;;;;;;;30.35;27.93;100201.09;5589370;31;33932;-69
2022/07/10 10:34:42;;;;;;;0.98;0.50;;;;;;;28.91;29.29;100180.94;5589318;31;35346;-68
2022/07/10 10:37:51;;;;;;;3.25;0.43;;;;;;;29.10;28.90;100178.19;5589449;31;35226;-68
2022/07/10 10:41:13;;;;;;;1.98;0.50;;;;;;;28.67;29.76;100170.00;5588853;31;32491;-68
2022/07/10 10:44:16;;;;;;;1.00;0.43;;;;;;;27.60;30.39;100167.56;5588666;31;34563;-68
2022/07/10 10:47:19;;;;;;;2.85;0.60;;;;;;;27.56;30.77;100168.41;5589265;31;34035;-68
2022/07/10 10:50:42;;;;;;;1.52;0.70;;;;;;;28.92;28.80;100166.16;5588542;31;35181;-68
2022/07/10 10:54:04;;;;;;;2.33;0.80;;;;;;;29.00;29.15;100162.78;5589099;31;33973;-68
2022/07/10 10:57:11;;;;;;;1.58;0.60;;;;;;;28.47;28.85;100165.63;5589054;31;33833;-69
2022/07/10 11:00:28;;;;;;;3.42;0.80;;;;;;;29.86;27.92;100163.38;5588605;31;32823;-67
2022/07/10 11:03:32;;;;;;;1.08;0.50;;;;;;;27.54;30.35;100154.28;5589109;31;34577;-68
2022/07/10 11:06:40;;;;;;;1.42;0.40;;;;;;;30.03;26.36;100160.88;5588384;31;34216;-69
2022/07/10 11:09:44;;;;;;;;;;;;;;;30.08;26.11;100155.31;5588609;31;34013;-69
2022/07/10 11:13:06;;;;;;;5.68;0.85;;;;;;;30.74;24.56;100154.84;5589003;31;34927;-67
2022/07/10 11:16:12;;;;;;;2.47;0.60;;;;;;;29.24;25.54;100149.84;5588971;31;33948;-69
2022/07/10 11:19:20;;;;;;;1.95;0.50;;;;;;;29.71;25.63;100148.84;5588615;31;34304;-68
2022/07/10 11:22:48;;;;;;;1.50;0.50;;;;;;;29.70;26.70;100160.91;5588484;31;32749;-67
2022/07/10 11:26:07;;;;;;;3.42;0.50;;;;;;;29.05;27.29;100162.69;5588621;31;34266;-67
2022/07/10 11:29:10;;;;;;;4.70;0.70;;;;;;;28.43;27.25;100150.94;5587304;31;33806;-68
2022/07/10 11:32:16;;;;;;;0.98;0.50;;;;;;;29.30;27.26;100147.84;5588509;31;34696;-67
2022/07/10 11:35:20;;;;;;;5.43;0.60;;;;;;;29.94;26.18;100144.38;5588501;31;34098;-68
2022/07/10 11:38:26;;;;;;;2.25;0.70;;;;;;;28.87;27.63;100158.87;5561831;31;33390;-68
2022/07/10 11:41:30;;;;;;;3.45;0.60;;;;;;;28.30;27.77;100168.00;5588569;31;34611;-67
2022/07/10 11:44:32;;;;;;;2.55;0.50;;;;;;;28.21;27.34;100163.47;5588604;31;33844;-69
2022/07/10 11:47:38;;;;;;;2.25;0.70;;;;;;;29.56;26.39;100170.97;5587505;31;33837;-70
2022/07/10 11:50:41;;;;;;;3.65;0.60;;;;;;;27.60;29.25;100178.44;5587062;31;32566;-67
2022/07/10 11:54:15;;;;;;;3.12;0.50;;;;;;;26.28;31.12;100182.91;5587419;31;34041;-68
2022/07/10 11:57:18;;;;;;;3.08;0.55;;;;;;;27.44;29.95;100176.94;5576434;31;34403;-67
2022/07/10 12:00:26;;;;;;;4.40;0.70;;;;;;;27.21;30.12;100172.97;5588194;31;34103;-68
2022/07/10 12:03:29;;;;;;;0.80;0.50;;;;;;;28.27;28.93;100167.78;5587794;31;34024;-67
2022/07/10 12:06:34;;;;;;;0.85;0.43;;;;;;;29.52;27.40;100169.16;5588249;31;34067;-67
2022/07/10 12:09:38;;;;;;;1.42;0.70;;;;;;;28.76;28.66;100181.12;5587828;31;34213;-68
2022/07/10 12:12:42;;;;;;;2.20;0.62;;;;;;;27.80;29.66;100169.28;5590053;31;33985;-67
2022/07/10 12:15:45;;;;;;;3.28;0.47;;;;;;;26.43;32.01;100177.44;5590446;31;34087;-68
2022/07/10 12:18:49;;;;;;;2.90;0.70;;;;;;;28.38;28.86;100164.62;5590730;31;34030;-69
2022/07/10 12:21:52;;;;;;;3.75;0.52;;;;;;;28.33;28.77;100175.59;5590766;31;34676;-68
2022/07/10 12:24:59;;;;;;;0.80;0.50;;;;;;;28.74;28.06;100175.97;5590670;31;33948;-68
2022/07/10 12:28:02;;;;;;;1.95;0.50;;;;;;;31.11;25.28;100175.69;5590306;31;33923;-67
2022/07/10 12:31:06;;;;;;;1.08;0.40;;;;;;;32.47;23.17;100189.84;5590251;31;35286;-66
2022/07/10 12:34:09;;;;;;;1.35;0.50;;;;;;;30.12;25.34;100178.22;5589900;31;34717;-67
2022/07/10 12:37:14;;;;;;;1.08;0.50;;;;;;;29.67;25.99;100186.13;5589804;31;33946;-67
2022/07/10 12:40:31;;;;;;;7.45;0.60;;;;;;;29.60;25.93;100182.13;5589682;31;34507;-69
2022/07/10 12:43:34;;;;;;;7.03;0.65;;;;;;;28.04;27.99;100189.25;5590317;31;34661;-68
2022/07/10 12:46:37;;;;;;;1.35;0.50;;;;;;;29.01;27.17;100190.91;5589797;31;33965;-66
2022/07/10 12:50:17;;;;;;;0.85;0.43;;;;;;;30.51;25.46;100183.25;5590407;31;34366;-69
2022/07/10 12:53:20;;;;;;;2.90;0.60;;;;;;;31.66;23.07;100195.50;5510902;32;33884;-68
2022/07/10 12:56:56;;;;;;;1.90;0.50;;;;;;;27.67;27.81;100178.94;5510868;32;33842;-70
2022/07/10 13:00:05;;;;;;;2.85;0.60;;;;;;;28.30;27.47;100200.75;5498635;32;33801;-68
2022/07/10 13:03:10;;;;;;;2.97;0.60;;;;;;;29.59;25.36;100192.25;5510532;32;33991;-68
2022/07/10 13:06:29;;;;;;;6.30;0.68;;;;;;;26.79;28.46;100202.59;5510522;32;33898;-68
2022/07/10 13:09:39;;;;;;;0.80;0.50;;;;;;;27.54;27.17;100195.16;5497660;32;33995;-68
2022/07/10 13:12:41;;;;;;;;;;;;;;;30.20;23.96;100200.25;5498035;32;34724;-70
2022/07/10 13:15:56;;;;;;;4.75;0.70;;;;;;;29.51;24.89;100214.81;5510658;32;34191;-67
2022/07/10 13:18:59;;;;;;;0.70;0.50;;;;;;;29.40;24.99;100213.31;5510750;32;34201;-68
2022/07/10 13:22:02;;;;;;;3.53;0.47;;;;;;;29.64;24.92;100205.84;5496794;32;32307;-70
2022/07/10 13:25:06;;;;;;;1.15;0.50;;;;;;;32.42;21.95;100211.97;5510776;32;33975;-69
2022/07/10 13:28:11;;;;;;;2.15;0.68;;;;;;;32.82;21.22;100207.28;5579041;31;33780;-69
2022/07/10 13:31:17;;;;;;;;;;;;;;;32.60;21.75;100208.16;5590163;31;35264;-67
2022/07/10 13:34:20;;;;;;;1.27;0.60;;;;;;;32.15;22.26;100208.28;5590121;31;34386;-68
2022/07/10 13:37:23;;;;;;;2.97;0.85;;;;;;;29.83;24.74;100202.25;5589795;31;33927;-67
2022/07/10 13:40:30;;;;;;;2.58;0.60;;;;;;;29.56;25.33;100195.59;5589379;31;32332;-67
2022/07/10 13:43:32;;;;;;;3.17;0.60;;;;;;;30.50;23.67;100187.13;5575960;31;34705;-68
2022/07/10 13:46:37;;;;;;;2.65;0.60;;;;;;;30.56;22.92;100189.44;5590314;31;35142;-67
2022/07/10 13:49:40;;;;;;;3.47;0.70;;;;;;;30.02;23.71;100181.16;5589757;31;33985;-70
2022/07/10 13:52:44;;;;;;;1.27;0.55;;;;;;;31.02;23.17;100194.81;5588706;31;32684;-68
2022/07/10 13:55:47;;;;;;;1.73;0.60;;;;;;;31.00;22.95;100182.50;5589787;31;34380;-69
2022/07/10 13:58:50;;;;;;;3.78;0.60;;;;;;;30.81;23.46;100190.03;5589069;31;34630;-67
2022/07/10 14:01:53;;;;;;;4.97;0.50;;;;;;;30.35;22.82;100171.78;5589716;31;34066;-68
2022/07/10 14:04:56;;;;;;;5.97;0.50;;;;;;;30.39;22.67;100172.78;5589753;31;34599;-67
2022/07/10 14:07:59;;;;;;;2.25;0.50;;;;;;;31.72;21.65;100177.81;5589871;31;34532;-68
2022/07/10 14:11:02;;;;;;;1.37;0.73;;;;;;;28.95;22.84;100190.16;5589892;31;33966;-69
2022/07/10 14:14:04;;;;;;;3.60;0.40;;;;;;;29.97;21.83;100195.72;5589502;31;35449;-67
2022/07/10 14:17:07;;;;;;;0.65;0.40;;;;;;;29.85;21.33;100191.81;5589549;31;34567;-67
2022/07/10 14:20:11;;;;;;;1.60;0.60;;;;;;;30.82;20.33;100186.19;5575703;31;32359;-67
2022/07/10 14:23:14;;;;;;;3.47;0.37;;;;;;;32.92;18.25;100183.03;5589803;31;34047;-67
2022/07/10 14:26:16;;;;;;;0.73;0.57;;;;;;;29.07;21.84;100182.34;5589367;31;34506;-69
2022/07/10 14:29:20;;;;;;;2.62;0.50;;;;;;;27.94;23.40;100166.69;5588175;31;32641;-70
2022/07/10 14:32:25;;;;;;;2.10;0.40;;;;;;;26.43;25.54;100173.91;5588623;31;34016;-68